ROYN/OGN METAR and TAF weather

Enter ICAO airport designator
Station Type Date Time Source
ROYN METAR 2022/06/28 14:00 UTC NOAA

ROYN 281400Z AUTO 16013KT 9999 FEW018 //////TCU 28/27 Q1008


Station Type Date Time Source
ROYN Decoded METAR 2022/06/28 14:00 UTC NOAA

Yonaguni Airport, Japan (ROYN) 24-28N 122-59E 19M
Jun 28, 2022 - 10:00 AM EDT / 2022.06.28 1400 UTC
Wind: from the SSE (160 degrees) at 15 MPH (13 KT):0
Visibility: greater than 7 mile(s):0
Sky conditions: mostly clear
Weather: Towering cumulus clouds observed
Temperature: 82 F (28 C)
Dew Point: 80 F (27 C)
Relative Humidity: 94%
Pressure (altimeter): 29.77 in. Hg (1008 hPa)
ob: ROYN 281400Z AUTO 16013KT 9999 FEW018 //////TCU 28/27 Q1008
cycle: 14

Station Type Date Time Source
ROYN TAF UTC NOAA

Error!

Example: see airport list